Time;durP1;ratioP1;P1;durP2;ratioP2;P2;SDS_P1;SDS_P2;PMS_P1;PMS_P2;Temp;Humidity;BMP_temperature;BMP_pressure;BME280_temperature;BME280_humidity;BME280_pressure;Samples;Min_cycle;Max_cycle;Signal;HPM_P1;HPM_P2
2023/03/19 05:22:33;;;;;;;3.30;2.08;;;;;;;9.32;93.31;100076.78;5109176;27;20327;-70
2023/03/19 05:24:59;;;;;;;2.58;1.60;;;;;;;9.25;94.25;100069.50;5108100;28;20164;-70
2023/03/19 05:27:26;;;;;;;2.08;1.40;;;;;;;9.27;93.40;100079.97;5108059;28;20408;-71
2023/03/19 05:30:05;;;;;;;1.70;1.30;;;;;;;9.25;92.76;100068.66;5108319;28;20036;-71
2023/03/19 05:32:49;;;;;;;2.58;1.60;;;;;;;9.28;93.57;100064.84;5107806;28;20040;-70
2023/03/19 05:35:26;;;;;;;2.42;1.42;;;;;;;9.25;93.45;100071.31;5107924;28;20036;-70
2023/03/19 05:37:53;;;;;;;2.08;1.35;;;;;;;9.28;93.93;100075.47;5107973;28;20489;-71
2023/03/19 05:40:19;;;;;;;2.70;1.83;;;;;;;9.24;94.34;100064.34;5107717;28;20115;-70
2023/03/19 05:42:45;;;;;;;2.17;1.50;;;;;;;9.29;94.13;100072.66;5107464;28;20031;-69
2023/03/19 05:45:13;;;;;;;3.17;1.30;;;;;;;9.25;94.40;100066.00;5091142;28;20042;-70
2023/03/19 05:47:48;;;;;;;1.63;1.40;;;;;;;9.29;94.49;100069.16;5107846;28;20450;-70
2023/03/19 05:50:16;;;;;;;2.10;1.45;;;;;;;9.29;94.26;100071.81;5107755;28;20492;-70
2023/03/19 05:52:58;;;;;;;2.45;1.58;;;;;;;9.30;93.82;100069.00;5107347;28;20077;-71
2023/03/19 05:55:24;;;;;;;2.60;1.63;;;;;;;9.31;93.55;100067.97;5107522;28;20040;-71
2023/03/19 05:57:58;;;;;;;2.05;1.42;;;;;;;9.32;95.03;100069.63;5107623;28;20059;-71
2023/03/19 06:00:25;;;;;;;3.47;1.80;;;;;;;9.34;94.59;100072.16;5107542;28;20041;-69
2023/03/19 06:02:51;;;;;;;6.43;4.43;;;;;;;9.39;94.25;100077.75;5107154;28;20789;-70
2023/03/19 06:05:35;;;;;;;3.25;2.17;;;;;;;9.42;93.36;100082.75;5107577;28;20389;-71
2023/03/19 06:08:22;;;;;;;2.97;2.10;;;;;;;9.44;93.03;100088.72;5107404;28;20074;-71
2023/03/19 06:11:02;;;;;;;2.20;1.50;;;;;;;9.44;94.19;100088.72;5107372;28;20047;-71
2023/03/19 06:13:28;;;;;;;5.88;3.67;;;;;;;9.46;94.21;100087.59;5106989;28;20032;-71
2023/03/19 06:16:05;;;;;;;4.32;1.65;;;;;;;9.46;93.82;100097.38;5108449;28;20036;-71
2023/03/19 06:18:37;;;;;;;2.97;2.25;;;;;;;9.49;93.27;100100.53;5107163;28;20064;-71
2023/03/19 06:21:07;;;;;;;3.50;2.10;;;;;;;9.56;92.09;100095.34;5106927;28;20127;-70
2023/03/19 06:23:32;;;;;;;3.10;2.25;;;;;;;9.55;92.01;100096.34;5106714;28;20036;-70
2023/03/19 06:26:00;;;;;;;2.45;1.85;;;;;;;9.52;91.16;100086.06;5106619;28;20089;-69
2023/03/19 06:28:31;;;;;;;3.08;1.83;;;;;;;9.49;90.55;100092.53;5107548;28;20089;-68
2023/03/19 06:30:56;;;;;;;2.65;1.60;;;;;;;9.58;90.18;100095.16;5108612;28;20036;-68
2023/03/19 06:33:40;;;;;;;2.00;1.48;;;;;;;9.51;91.01;100087.88;5094976;28;20411;-68
2023/03/19 06:36:06;;;;;;;3.60;1.50;;;;;;;9.60;90.54;100093.19;5093613;28;20040;-68
2023/03/19 06:38:32;;;;;;;2.42;1.70;;;;;;;9.65;88.04;100098.81;5093685;28;20032;-68
2023/03/19 06:40:57;;;;;;;2.10;1.38;;;;;;;9.68;87.03;100101.16;5094718;28;20036;-68
2023/03/19 06:43:23;;;;;;;3.25;2.20;;;;;;;9.70;88.25;100104.44;5093266;28;20040;-68
2023/03/19 06:45:48;;;;;;;2.70;2.30;;;;;;;9.72;87.96;100099.81;5094861;28;20044;-68
2023/03/19 06:48:14;;;;;;;3.05;2.17;;;;;;;9.74;88.27;100111.94;5094745;28;20043;-67
2023/03/19 06:50:40;;;;;;;4.50;2.08;;;;;;;9.80;88.19;100105.09;5094696;28;20044;-55
2023/03/19 06:53:05;;;;;;;3.00;2.00;;;;;;;9.85;88.51;100110.75;5094268;28;20075;-57
2023/03/19 06:55:30;;;;;;;2.88;2.13;;;;;;;9.90;89.06;100110.19;5093148;28;20131;-54
2023/03/19 06:57:56;;;;;;;2.22;2.03;;;;;;;9.89;89.32;100101.41;5094548;28;20042;-56
2023/03/19 07:00:22;;;;;;;4.63;2.95;;;;;;;9.98;90.83;100105.69;5094675;28;20435;-54
2023/03/19 07:02:47;;;;;;;2.75;2.22;;;;;;;10.04;91.14;100109.47;5093977;28;20040;-65
2023/03/19 07:05:13;;;;;;;3.67;1.98;;;;;;;10.06;92.44;100103.00;5094362;28;20040;-65
2023/03/19 07:07:39;;;;;;;6.53;3.33;;;;;;;10.08;90.93;100108.13;5094353;28;20043;-65
2023/03/19 07:10:05;;;;;;;2.28;1.83;;;;;;;10.12;90.22;100114.78;5094416;28;20400;-65
2023/03/19 07:12:31;;;;;;;2.30;1.60;;;;;;;10.13;91.38;100115.63;5094026;28;20035;-65
2023/03/19 07:14:56;;;;;;;2.08;1.85;;;;;;;10.18;91.93;100119.41;5094485;28;20552;-65
2023/03/19 07:17:22;;;;;;;2.33;2.13;;;;;;;10.20;94.33;100121.91;5094173;28;20496;-66
2023/03/19 07:19:48;;;;;;;3.28;2.22;;;;;;;10.22;94.36;100130.53;5094163;28;20032;-65
2023/03/19 07:22:13;;;;;;;3.83;2.05;;;;;;;10.26;92.77;100131.88;5093788;28;20043;-66
2023/03/19 07:24:39;;;;;;;2.28;2.08;;;;;;;10.32;91.82;100132.00;5093775;28;20388;-66
2023/03/19 07:27:04;;;;;;;2.72;1.95;;;;;;;10.36;90.69;100132.47;5094034;28;20036;-66
2023/03/19 07:29:30;;;;;;;2.50;1.58;;;;;;;10.43;90.39;100136.13;5094116;28;20628;-66
2023/03/19 07:31:55;;;;;;;2.70;1.95;;;;;;;10.56;88.93;100138.19;5093881;28;20032;-65
2023/03/19 07:34:20;;;;;;;1.48;1.17;;;;;;;10.68;86.91;100134.13;5093559;28;20485;-66
2023/03/19 07:36:46;;;;;;;2.78;1.92;;;;;;;10.78;87.62;100125.91;5093752;28;20135;-66
2023/03/19 07:39:11;;;;;;;2.17;1.50;;;;;;;10.90;86.98;100126.34;5093885;28;20134;-66
2023/03/19 07:41:37;;;;;;;2.28;1.48;;;;;;;11.00;88.49;100134.91;5093739;28;20040;-66
2023/03/19 07:44:02;;;;;;;1.20;1.00;;;;;;;11.11;83.59;100127.31;5092494;28;20089;-66
2023/03/19 07:46:28;;;;;;;2.80;1.85;;;;;;;11.25;82.69;100135.53;5093897;28;20090;-66
2023/03/19 07:48:53;;;;;;;2.45;1.80;;;;;;;11.43;83.45;100140.56;5093897;28;20039;-66
2023/03/19 07:51:19;;;;;;;1.90;1.58;;;;;;;11.60;83.13;100134.84;5093527;28;20135;-65
2023/03/19 07:53:44;;;;;;;2.58;1.70;;;;;;;11.78;79.69;100139.00;5093091;28;20124;-66
2023/03/19 07:56:11;;;;;;;4.50;2.03;;;;;;;11.90;78.12;100135.72;5093448;28;20048;-66
2023/03/19 07:58:36;;;;;;;3.20;1.67;;;;;;;12.06;78.42;100131.22;5093426;28;20036;-66
2023/03/19 08:01:02;;;;;;;1.80;1.33;;;;;;;12.16;75.28;100132.59;5093143;28;20029;-66
2023/03/19 08:03:28;;;;;;;2.92;1.25;;;;;;;12.29;73.82;100137.25;5093028;28;20038;-65
2023/03/19 08:05:53;;;;;;;1.58;1.35;;;;;;;12.38;72.13;100138.81;5093272;28;20040;-66
2023/03/19 08:08:18;;;;;;;2.03;1.60;;;;;;;12.52;73.02;100137.13;5093278;28;20633;-66
2023/03/19 08:10:44;;;;;;;3.20;1.67;;;;;;;12.66;70.87;100138.09;5091765;28;20074;-66
2023/03/19 08:13:10;;;;;;;2.42;1.40;;;;;;;12.72;71.12;100143.53;5092864;28;20032;-65
2023/03/19 08:15:35;;;;;;;3.58;1.45;;;;;;;12.95;74.20;100132.63;5093025;28;20032;-66
2023/03/19 08:18:03;;;;;;;1.90;1.65;;;;;;;13.18;69.55;100136.97;5093014;28;20071;-66
2023/03/19 08:20:29;;;;;;;2.97;1.40;;;;;;;13.31;68.93;100137.09;5092769;28;20043;-66
2023/03/19 08:22:56;;;;;;;2.08;1.42;;;;;;;13.47;66.78;100136.81;5092580;28;20040;-66
2023/03/19 08:25:22;;;;;;;1.33;1.10;;;;;;;13.78;65.89;100136.41;5092905;28;20118;-66
2023/03/19 08:27:48;;;;;;;1.90;1.10;;;;;;;13.89;63.49;100135.03;5093043;28;20401;-66
2023/03/19 08:30:14;;;;;;;1.83;1.40;;;;;;;14.01;66.32;100133.44;5092856;28;20544;-66
2023/03/19 08:32:40;;;;;;;1.50;1.20;;;;;;;14.08;62.96;100144.19;5092493;28;20036;-66
2023/03/19 08:35:06;;;;;;;1.23;0.88;;;;;;;14.19;62.46;100142.81;5092753;28;20024;-66
2023/03/19 08:37:31;;;;;;;1.98;1.40;;;;;;;14.30;63.03;100136.88;5092692;28;20046;-66
2023/03/19 08:39:57;;;;;;;1.05;0.90;;;;;;;14.60;63.79;100142.78;5092687;28;20040;-66
2023/03/19 08:42:22;;;;;;;1.23;1.08;;;;;;;14.78;60.06;100140.34;5091221;28;20039;-65
2023/03/19 08:44:49;;;;;;;1.23;1.05;;;;;;;14.85;57.71;100135.81;5092677;28;20420;-66
2023/03/19 08:47:14;;;;;;;2.75;1.08;;;;;;;15.14;58.33;100131.13;5091333;28;20439;-66
2023/03/19 08:49:40;;;;;;;1.23;1.02;;;;;;;15.13;58.00;100130.31;5092505;28;20036;-66
2023/03/19 08:52:06;;;;;;;1.80;1.00;;;;;;;15.31;55.12;100142.25;5092246;28;20040;-66
2023/03/19 08:54:32;;;;;;;1.00;0.90;;;;;;;15.47;54.80;100141.84;5092284;28;20060;-66
2023/03/19 08:56:59;;;;;;;1.20;1.10;;;;;;;15.66;57.00;100146.41;5092100;28;20489;-66
2023/03/19 08:59:24;;;;;;;1.38;1.00;;;;;;;15.74;53.17;100140.00;5092296;28;20039;-66
2023/03/19 09:01:51;;;;;;;1.63;1.23;;;;;;;15.90;53.04;100149.44;5092351;28;20111;-66
2023/03/19 09:04:17;;;;;;;1.50;1.10;;;;;;;15.95;50.88;100145.09;5091908;28;20050;-65
2023/03/19 09:06:43;;;;;;;1.77;0.90;;;;;;;15.78;50.94;100135.00;5092121;28;20119;-66
2023/03/19 09:09:09;;;;;;;1.63;1.10;;;;;;;15.82;51.19;100137.06;5092305;28;20040;-66
2023/03/19 09:11:35;;;;;;;2.55;1.25;;;;;;;15.86;52.81;100143.69;5092167;28;20119;-66
2023/03/19 09:14:00;;;;;;;1.30;1.08;;;;;;;15.92;53.35;100136.66;5091890;28;20052;-66
2023/03/19 09:16:26;;;;;;;3.60;1.08;;;;;;;16.02;52.24;100145.09;5090846;28;20032;-66
2023/03/19 09:18:51;;;;;;;1.00;0.90;;;;;;;15.98;52.08;100150.06;5092003;28;20397;-66
2023/03/19 09:21:17;;;;;;;1.35;0.90;;;;;;;16.16;52.56;100144.00;5092175;28;20050;-66
2023/03/19 09:23:42;;;;;;;2.60;0.80;;;;;;;16.25;50.78;100152.69;5091736;28;20044;-66
2023/03/19 09:26:07;;;;;;;1.27;1.17;;;;;;;16.39;52.28;100148.88;5090750;28;20040;-66
2023/03/19 09:28:34;;;;;;;2.00;1.02;;;;;;;16.58;54.87;100151.72;5092032;28;20036;-66
2023/03/19 09:31:05;;;;;;;1.57;0.70;;;;;;;16.76;53.58;100146.47;5091955;28;20062;-66
2023/03/19 09:33:32;;;;;;;1.35;0.90;;;;;;;16.90;49.57;100137.28;5091724;28;20689;-66
2023/03/19 09:35:57;;;;;;;1.52;1.00;;;;;;;16.95;49.49;100147.34;5091850;28;20540;-66
2023/03/19 09:38:23;;;;;;;1.95;1.00;;;;;;;16.92;49.32;100148.63;5091955;28;20115;-66
2023/03/19 09:41:12;;;;;;;1.50;0.90;;;;;;;17.03;49.20;100144.44;5090727;28;20032;-65
2023/03/19 09:44:00;;;;;;;1.10;1.00;;;;;;;17.33;47.97;100141.91;5091576;28;20493;-66
2023/03/19 09:46:43;;;;;;;1.35;0.88;;;;;;;17.58;48.09;100139.22;5091806;28;20032;-66
2023/03/19 09:49:26;;;;;;;1.08;0.98;;;;;;;18.08;47.84;100147.22;5091864;28;20047;-66
2023/03/19 09:52:06;;;;;;;1.85;1.70;;;;;;;18.38;46.30;100141.88;5090543;28;20032;-66
2023/03/19 09:54:38;;;;;;;1.13;0.95;;;;;;;18.50;43.53;100150.84;5091615;28;20109;-66
2023/03/19 09:57:04;;;;;;;1.38;0.80;;;;;;;18.58;44.00;100155.09;5091835;28;20472;-66
2023/03/19 09:59:30;;;;;;;1.45;1.00;;;;;;;18.91;43.57;100146.59;5091850;28;20035;-66
2023/03/19 10:02:32;;;;;;;1.40;1.10;;;;;;;18.93;42.51;100148.00;5091758;28;20036;-66
2023/03/19 10:05:14;;;;;;;2.22;1.20;;;;;;;18.80;42.46;100152.78;5091868;28;20057;-66
2023/03/19 10:07:58;;;;;;;1.35;0.90;;;;;;;18.78;43.68;100141.38;5092836;28;20036;-66
2023/03/19 10:10:26;;;;;;;2.22;0.82;;;;;;;18.89;42.62;100140.59;5095740;28;20032;-66
2023/03/19 10:13:26;;;;;;;2.60;0.98;;;;;;;19.15;42.63;100137.50;5095094;28;20032;-66
2023/03/19 10:15:53;;;;;;;2.55;0.90;;;;;;;19.28;43.79;100130.25;5056078;28;20036;-66
2023/03/19 10:18:28;;;;;;;0.85;0.75;;;;;;;19.59;44.09;100134.53;5090989;28;20402;-66
2023/03/19 10:21:00;;;;;;;1.13;0.80;;;;;;;20.07;41.91;100134.22;5093934;28;20036;-66
2023/03/19 10:23:44;;;;;;;2.40;0.80;;;;;;;20.22;42.19;100137.28;5094962;28;20062;-66
2023/03/19 10:26:14;;;;;;;2.40;1.00;;;;;;;19.73;41.25;100139.44;5095231;28;20477;-66
2023/03/19 10:28:50;;;;;;;0.80;0.80;;;;;;;19.01;41.24;100141.47;5095230;28;20443;-66
2023/03/19 10:31:26;;;;;;;1.40;0.90;;;;;;;18.52;42.01;100138.00;5095023;28;20039;-66
2023/03/19 10:34:20;;;;;;;1.20;1.00;;;;;;;18.30;42.82;100134.94;5094687;28;20048;-66
2023/03/19 10:36:46;;;;;;;1.42;1.02;;;;;;;18.46;44.22;100135.38;5092086;28;20126;-66
2023/03/19 10:39:15;;;;;;;2.00;1.08;;;;;;;18.97;43.45;100140.25;5094880;28;20118;-65
2023/03/19 10:42:34;;;;;;;2.15;0.93;;;;;;;19.20;42.81;100134.09;5094961;28;20071;-65
2023/03/19 10:45:12;;;;;;;2.70;1.23;;;;;;;19.44;41.59;100124.16;5055604;28;20040;-65
2023/03/19 10:47:39;;;;;;;1.40;0.98;;;;;;;19.55;41.56;100120.63;5094782;28;20054;-65
2023/03/19 10:50:06;;;;;;;2.65;1.10;;;;;;;19.57;41.02;100110.41;5094843;28;20040;-65
2023/03/19 10:52:34;;;;;;;2.83;0.90;;;;;;;19.31;42.50;100119.00;5094379;28;20476;-65
2023/03/19 10:55:15;;;;;;;1.25;0.90;;;;;;;19.37;44.04;100120.75;5094646;28;20032;-65
2023/03/19 10:57:42;;;;;;;1.20;0.90;;;;;;;19.03;44.64;100127.72;5094672;28;20118;-66
2023/03/19 11:00:21;;;;;;;1.20;0.80;;;;;;;19.31;44.32;100125.22;5094653;28;20024;-65
2023/03/19 11:02:52;;;;;;;2.13;0.93;;;;;;;19.19;44.87;100130.59;5094381;28;20047;-65
2023/03/19 11:05:21;;;;;;;3.30;1.02;;;;;;;19.28;44.57;100128.34;5093730;28;20028;-65
2023/03/19 11:08:15;;;;;;;0.95;0.80;;;;;;;19.07;44.39;100131.63;5094711;28;20032;-65
2023/03/19 11:10:47;;;;;;;1.88;1.13;;;;;;;19.01;45.97;100133.38;5094202;28;20428;-65
2023/03/19 11:13:25;;;;;;;1.58;1.13;;;;;;;19.06;44.97;100138.91;5093889;28;20032;-65
2023/03/19 11:15:53;;;;;;;2.10;0.98;;;;;;;18.94;46.14;100132.63;5092668;28;20040;-66
2023/03/19 11:18:26;;;;;;;1.10;0.98;;;;;;;18.68;45.83;100137.38;5093869;28;20044;-65
2023/03/19 11:21:04;;;;;;;1.90;1.20;;;;;;;18.76;46.79;100132.69;5093918;28;20073;-65
2023/03/19 11:23:38;;;;;;;1.50;1.10;;;;;;;18.78;45.50;100139.53;5093599;28;20395;-66
2023/03/19 11:26:04;;;;;;;1.35;1.25;;;;;;;18.55;46.99;100134.81;5093722;28;20093;-65
2023/03/19 11:28:32;;;;;;;1.70;1.00;;;;;;;18.61;46.06;100142.00;5093784;28;20020;-65
2023/03/19 11:31:36;;;;;;;1.60;0.93;;;;;;;18.54;47.33;100137.75;5093710;28;20032;-65
2023/03/19 11:34:21;;;;;;;0.98;0.82;;;;;;;18.74;46.42;100137.50;5081727;28;20040;-65
2023/03/19 11:36:53;;;;;;;1.73;0.90;;;;;;;18.89;46.51;100138.72;5093629;28;20111;-65
2023/03/19 11:39:40;;;;;;;1.17;0.90;;;;;;;19.25;47.08;100136.94;5093779;28;20055;-65
2023/03/19 11:42:12;;;;;;;;;;;;;;;19.70;46.56;100131.00;5093913;28;20483;-65
2023/03/19 11:44:41;;;;;;;1.67;1.05;;;;;;;20.47;44.85;100133.44;5093363;28;19912;-66
2023/03/19 11:47:15;;;;;;;2.22;1.10;;;;;;;20.86;42.57;100126.34;5092060;28;20032;-65
2023/03/19 11:50:03;;;;;;;4.63;1.40;;;;;;;20.68;44.34;100135.50;5093495;28;20059;-65
2023/03/19 11:52:32;;;;;;;2.45;1.17;;;;;;;20.76;42.47;100126.97;5093214;28;20613;-66
2023/03/19 11:55:13;;;;;;;2.42;1.10;;;;;;;20.36;43.33;100120.78;5093440;28;20032;-65
2023/03/19 11:58:09;;;;;;;2.08;1.30;;;;;;;20.24;43.61;100120.81;5093279;28;20043;-65
2023/03/19 12:00:46;;;;;;;1.80;1.30;;;;;;;19.94;44.29;100113.69;5093143;28;20036;-65
2023/03/19 12:03:36;;;;;;;1.50;1.10;;;;;;;19.82;44.90;100120.16;5092980;28;20047;-65
2023/03/19 12:06:34;;;;;;;1.42;1.00;;;;;;;19.85;44.89;100112.41;5093177;28;20030;-65
2023/03/19 12:09:38;;;;;;;2.83;1.30;;;;;;;19.71;44.98;100117.25;5093171;28;20042;-65
2023/03/19 12:12:26;;;;;;;1.58;1.00;;;;;;;19.29;45.51;100121.06;5091445;28;20055;-65
2023/03/19 12:15:18;;;;;;;1.58;0.95;;;;;;;18.88;44.58;100120.88;5082466;28;20405;-65
2023/03/19 12:18:13;;;;;;;3.00;1.00;;;;;;;19.04;45.73;100119.41;5093106;28;20619;-65
2023/03/19 12:21:46;;;;;;;2.50;1.15;;;;;;;18.73;46.76;100127.78;5087941;28;20511;-65
2023/03/19 12:24:31;;;;;;;2.80;1.20;;;;;;;18.95;45.35;100121.59;5037318;28;20139;-64
2023/03/19 12:27:09;;;;;;;2.92;1.30;;;;;;;18.96;46.03;100125.94;5092895;28;20055;-64
2023/03/19 12:29:35;;;;;;;;;;;;;;;18.86;46.24;100123.00;5093233;28;20514;-64
2023/03/19 12:32:31;;;;;;;2.25;1.30;;;;;;;18.71;45.50;100133.38;5092172;28;19916;-65
2023/03/19 12:35:03;;;;;;;1.52;1.00;;;;;;;18.62;46.25;100129.34;5087804;28;20126;-64
2023/03/19 12:37:56;;;;;;;1.65;1.08;;;;;;;18.32;47.49;100130.16;5092660;28;20059;-65
2023/03/19 12:40:40;;;;;;;1.85;1.42;;;;;;;18.10;47.28;100126.25;5092700;28;20035;-64
2023/03/19 12:43:16;;;;;;;1.70;1.10;;;;;;;17.96;48.67;100122.91;5092354;28;20093;-63
2023/03/19 12:45:49;;;;;;;1.35;1.00;;;;;;;17.96;48.72;100125.59;5092579;28;20430;-63
2023/03/19 12:48:40;;;;;;;1.13;1.02;;;;;;;17.69;49.08;100122.31;5091490;28;20044;-64
2023/03/19 12:51:10;;;;;;;1.83;1.10;;;;;;;17.82;49.27;100121.41;5092367;28;20081;-64
2023/03/19 12:53:55;;;;;;;1.40;1.20;;;;;;;17.69;49.93;100121.50;5092118;28;20059;-63
2023/03/19 12:56:35;;;;;;;1.40;1.30;;;;;;;17.80;49.94;100118.94;5092386;28;20060;-62
2023/03/19 12:59:35;;;;;;;1.85;1.35;;;;;;;17.66;49.58;100127.31;5092358;28;20369;-64
2023/03/19 13:02:27;;;;;;;1.63;1.10;;;;;;;17.44;50.18;100125.03;5092328;28;20036;-62
2023/03/19 13:05:04;;;;;;;1.45;1.20;;;;;;;17.52;50.94;100123.94;5092188;28;20067;-63
2023/03/19 13:08:17;;;;;;;2.15;1.35;;;;;;;17.60;50.70;100124.50;5092048;28;20038;-55
2023/03/19 13:10:43;;;;;;;5.65;1.63;;;;;;;17.41;51.59;100132.72;5089905;28;20052;-49
2023/03/19 13:13:36;;;;;;;1.58;1.25;;;;;;;17.28;51.81;100131.81;5091819;28;20066;-50
2023/03/19 13:16:32;;;;;;;1.60;1.13;;;;;;;17.11;52.43;100130.69;5090990;28;20078;-49
2023/03/19 13:19:12;;;;;;;2.40;1.30;;;;;;;17.01;52.17;100139.25;5090152;28;20572;-55
2023/03/19 13:21:40;;;;;;;2.28;1.60;;;;;;;16.87;52.22;100128.81;5091901;28;20119;-54
2023/03/19 13:24:18;;;;;;;1.50;1.10;;;;;;;16.76;53.69;100135.72;5091754;28;20493;-52
2023/03/19 13:26:44;;;;;;;5.38;3.17;;;;;;;16.79;53.26;100119.94;5092034;28;20398;-50
2023/03/19 13:29:19;;;;;;;2.97;1.77;;;;;;;16.77;53.67;100135.50;5091903;28;20032;-55
2023/03/19 13:31:45;;;;;;;2.83;1.40;;;;;;;16.61;54.24;100132.44;5092278;28;20443;-49
2023/03/19 13:34:17;;;;;;;2.10;1.50;;;;;;;16.69;53.64;100130.34;5091601;28;20059;-54
2023/03/19 13:36:46;;;;;;;2.38;1.30;;;;;;;16.65;54.74;100130.97;5091794;28;20044;-55
2023/03/19 13:39:19;;;;;;;1.27;1.02;;;;;;;16.77;54.10;100137.34;5091811;28;20120;-56
2023/03/19 13:42:19;;;;;;;2.00;1.50;;;;;;;16.73;53.96;100130.75;5092045;28;20430;-52
2023/03/19 13:44:51;;;;;;;3.60;1.48;;;;;;;16.96;54.87;100120.25;5095882;28;20040;-55
2023/03/19 13:47:25;;;;;;;2.17;1.50;;;;;;;16.83;55.80;100127.59;5095887;28;20032;-53
2023/03/19 13:50:20;;;;;;;2.45;1.40;;;;;;;16.77;55.72;100123.91;5095840;28;20046;-51
2023/03/19 13:52:48;;;;;;;3.05;1.60;;;;;;;16.75;57.35;100125.97;5095431;28;20358;-53
2023/03/19 13:55:23;;;;;;;2.05;1.13;;;;;;;16.87;57.35;100126.94;5095771;28;20066;-50
2023/03/19 13:58:11;;;;;;;2.13;1.40;;;;;;;16.65;57.31;100120.22;5095693;28;20036;-54
2023/03/19 14:00:45;;;;;;;3.55;1.50;;;;;;;16.77;57.07;100123.91;5095717;28;20096;-65
2023/03/19 14:03:22;;;;;;;2.17;1.40;;;;;;;16.62;57.88;100117.94;5095364;28;20044;-67
2023/03/19 14:05:51;;;;;;;2.63;1.67;;;;;;;16.78;56.91;100114.78;5095583;28;20137;-65
2023/03/19 14:08:26;;;;;;;2.28;1.48;;;;;;;16.83;56.80;100120.34;5095553;28;20035;-64
2023/03/19 14:10:56;;;;;;;3.53;1.95;;;;;;;16.70;58.45;100123.94;5095299;28;20040;-65
2023/03/19 14:13:30;;;;;;;2.67;1.30;;;;;;;16.84;56.68;100113.09;5093747;28;20485;-65
2023/03/19 14:16:05;;;;;;;3.03;1.52;;;;;;;16.74;58.41;100116.25;5095285;28;20028;-63
2023/03/19 14:18:31;;;;;;;1.85;1.40;;;;;;;16.76;57.85;100120.41;5095267;28;20119;-64
2023/03/19 14:21:04;;;;;;;1.60;1.23;;;;;;;16.71;58.95;100122.09;5095315;28;20047;-64
2023/03/19 14:23:31;;;;;;;2.83;1.40;;;;;;;16.47;58.35;100113.69;5094858;28;20036;-65
2023/03/19 14:26:15;;;;;;;;;;;;;;;16.61;57.28;100124.38;5094389;28;20085;-64
2023/03/19 14:29:01;;;;;;;2.42;1.70;;;;;;;16.42;59.10;100118.88;5093838;28;19961;-63
2023/03/19 14:31:42;;;;;;;1.75;1.33;;;;;;;16.20;60.79;100118.38;5095020;28;20432;-66
2023/03/19 14:34:23;;;;;;;2.67;1.60;;;;;;;16.22;59.92;100110.09;5094746;28;20036;-65
2023/03/19 14:37:23;;;;;;;1.95;1.40;;;;;;;15.91;61.65;100111.66;5095015;28;20032;-65
2023/03/19 14:39:57;;;;;;;1.90;1.17;;;;;;;15.75;63.83;100114.78;5095021;28;20047;-65
2023/03/19 14:42:28;;;;;;;2.20;1.30;;;;;;;15.68;62.50;100109.44;5093302;28;20445;-65
2023/03/19 14:45:12;;;;;;;1.40;1.05;;;;;;;15.63;63.12;100114.59;5094921;28;20083;-65
2023/03/19 14:47:40;;;;;;;2.40;1.20;;;;;;;15.64;62.96;100108.19;5094804;28;20500;-66
2023/03/19 14:50:12;;;;;;;1.27;1.17;;;;;;;15.67;62.98;100115.00;5093520;28;20169;-65
2023/03/19 14:53:13;;;;;;;1.95;1.30;;;;;;;15.68;62.63;100117.50;5094410;28;20036;-65
2023/03/19 14:55:40;;;;;;;2.58;1.35;;;;;;;15.73;62.04;100111.50;5094642;28;20040;-62
2023/03/19 14:58:10;;;;;;;3.40;1.42;;;;;;;15.70;62.75;100112.72;5094695;28;20051;-62
2023/03/19 15:00:54;;;;;;;1.45;1.15;;;;;;;15.76;62.77;100113.75;5094483;28;20032;-62
2023/03/19 15:03:36;;;;;;;3.67;1.45;;;;;;;15.83;64.09;100111.88;5094089;28;20119;-64
2023/03/19 15:06:04;;;;;;;1.77;1.30;;;;;;;15.84;64.29;100112.69;5094422;28;20202;-65
2023/03/19 15:08:32;;;;;;;2.85;1.55;;;;;;;15.88;62.86;100105.88;5094522;28;20046;-65
2023/03/19 15:11:26;;;;;;;2.58;1.60;;;;;;;15.98;62.00;100117.00;5094260;28;20038;-64
2023/03/19 15:14:13;;;;;;;1.60;1.30;;;;;;;16.02;63.59;100102.94;5094077;28;20036;-65
2023/03/19 15:17:03;;;;;;;2.10;1.10;;;;;;;16.05;62.22;100115.13;5094117;28;20036;-63
2023/03/19 15:19:31;;;;;;;2.10;1.23;;;;;;;16.12;64.72;100109.72;5094076;28;20036;-65
2023/03/19 15:22:15;;;;;;;2.17;1.40;;;;;;;16.26;63.47;100104.06;5094147;28;20083;-66
2023/03/19 15:24:41;;;;;;;1.58;1.10;;;;;;;16.33;61.82;100101.34;5094279;28;20111;-64
2023/03/19 15:27:24;;;;;;;1.27;1.17;;;;;;;16.57;62.19;100110.56;5093997;28;20116;-65
2023/03/19 15:29:51;;;;;;;1.77;1.02;;;;;;;16.68;60.56;100109.84;5094134;28;20040;-65
2023/03/19 15:32:49;;;;;;;1.60;1.30;;;;;;;16.66;59.98;100117.31;5093699;28;20425;-65
2023/03/19 15:35:15;;;;;;;1.30;1.00;;;;;;;16.69;60.55;100127.66;5081345;28;20060;-64
2023/03/19 15:37:45;;;;;;;2.25;1.08;;;;;;;16.51;60.68;100131.06;5093819;28;20043;-64
2023/03/19 15:40:14;;;;;;;1.88;0.90;;;;;;;16.45;59.60;100121.16;5093836;28;20032;-66
2023/03/19 15:42:42;;;;;;;2.92;1.33;;;;;;;16.49;59.77;100118.84;5093442;28;20032;-65
2023/03/19 15:45:10;;;;;;;1.33;1.02;;;;;;;16.42;62.00;100115.38;5093703;28;20051;-63
2023/03/19 15:47:50;;;;;;;1.80;1.00;;;;;;;16.34;61.83;100118.31;5093598;28;20412;-65
2023/03/19 15:50:18;;;;;;;1.65;1.40;;;;;;;16.12;61.97;100123.97;5093627;28;20122;-65
2023/03/19 15:52:56;;;;;;;1.00;0.90;;;;;;;15.94;62.84;100116.59;5093280;28;20039;-65
2023/03/19 15:55:25;;;;;;;1.33;1.15;;;;;;;15.73;64.58;100120.38;5093387;28;20036;-62
2023/03/19 15:57:54;;;;;;;1.77;1.42;;;;;;;15.59;66.05;100125.94;5093488;28;20478;-64
2023/03/19 16:00:19;;;;;;;1.65;1.20;;;;;;;15.59;65.69;100134.00;5093326;28;20115;-64
2023/03/19 16:02:49;;;;;;;3.58;1.15;;;;;;;15.46;67.16;100143.72;5093058;28;20044;-62
2023/03/19 16:05:32;;;;;;;1.60;1.30;;;;;;;15.36;67.35;100147.84;5092712;28;20040;-64
2023/03/19 16:08:23;;;;;;;1.58;1.08;;;;;;;15.29;68.41;100147.03;5093331;28;20032;-63
2023/03/19 16:10:49;;;;;;;2.42;1.45;;;;;;;15.27;69.75;100165.19;5093268;28;20081;-63
2023/03/19 16:13:36;;;;;;;2.05;1.63;;;;;;;15.11;70.66;100172.59;5092945;28;20043;-63
2023/03/19 16:16:07;;;;;;;1.45;1.00;;;;;;;14.97;70.97;100180.81;5093084;28;20040;-65
2023/03/19 16:18:55;;;;;;;1.42;1.30;;;;;;;14.79;72.88;100194.78;5093162;28;20035;-64
2023/03/19 16:21:26;;;;;;;1.45;1.00;;;;;;;14.06;84.16;100194.44;5092997;28;20119;-64
2023/03/19 16:23:59;;;;;;;1.17;0.80;;;;;;;13.62;90.74;100194.75;5092693;28;20039;-60
2023/03/19 16:26:34;;;;;;;3.08;0.95;;;;;;;12.98;94.66;100199.09;5092864;28;20043;-63
2023/03/19 16:29:23;;;;;;;2.03;1.00;;;;;;;12.22;100.00;100208.47;5092932;28;20409;-64
2023/03/19 16:31:51;;;;;;;1.27;0.80;;;;;;;11.68;100.00;100198.81;5092785;28;20043;-60
2023/03/19 16:34:27;;;;;;;2.30;1.17;;;;;;;11.53;100.00;100216.63;5092520;28;20093;-64
2023/03/19 16:36:53;;;;;;;2.00;1.80;;;;;;;11.46;100.00;100221.00;5092867;28;20036;-65
2023/03/19 16:39:34;;;;;;;2.38;1.20;;;;;;;11.26;100.00;100233.19;5092537;28;20059;-64
2023/03/19 16:42:12;;;;;;;1.42;0.90;;;;;;;11.18;100.00;100235.91;5092828;28;20427;-49
2023/03/19 16:44:45;;;;;;;0.70;0.55;;;;;;;10.98;100.00;100236.38;5092357;28;20039;-65
2023/03/19 16:47:12;;;;;;;0.82;0.60;;;;;;;10.81;100.00;100238.28;5092714;28;20476;-62
2023/03/19 16:49:38;;;;;;;0.73;0.73;;;;;;;10.75;100.00;100238.97;5092881;28;20093;-65
2023/03/19 16:52:04;;;;;;;1.33;0.90;;;;;;;10.66;100.00;100228.56;5092378;28;20485;-66
2023/03/19 16:54:30;;;;;;;1.00;0.80;;;;;;;10.65;100.00;100225.06;5092450;28;20036;-64
2023/03/19 16:56:55;;;;;;;2.53;1.02;;;;;;;10.72;100.00;100231.34;5092339;28;20373;-63
2023/03/19 16:59:27;;;;;;;0.95;0.80;;;;;;;10.76;100.00;100237.19;5092347;28;20512;-65
2023/03/19 17:01:52;;;;;;;1.48;0.90;;;;;;;10.83;100.00;100230.13;5092449;28;20040;-62
2023/03/19 17:04:18;;;;;;;2.25;1.20;;;;;;;10.91;100.00;100243.41;5091984;28;20042;-64
2023/03/19 17:06:44;;;;;;;1.20;1.10;;;;;;;10.99;100.00;100243.34;5092419;28;20117;-65
2023/03/19 17:09:10;;;;;;;3.42;1.73;;;;;;;11.07;100.00;100245.13;5086047;28;20040;-64
2023/03/19 17:11:38;;;;;;;3.35;1.20;;;;;;;11.18;100.00;100249.25;5092001;28;20044;-65
2023/03/19 17:14:08;;;;;;;1.77;1.30;;;;;;;11.23;100.00;100245.03;5089826;28;20044;-65
2023/03/19 17:16:34;;;;;;;1.83;1.33;;;;;;;11.30;100.00;100253.16;5092118;28;20032;-66
2023/03/19 17:19:00;;;;;;;2.15;1.60;;;;;;;11.37;100.00;100251.44;5092284;28;20541;-66